sensor_id;sensor_type;location;lat;lon;timestamp;P1;durP1;ratioP1;P2;durP2;ratioP2
68700;SDS011;55682;51.114;5.882;2023-02-28T00:00:28;8.37;;;8.37;;
68700;SDS011;55682;51.114;5.882;2023-02-28T00:02:53;8.09;;;8.09;;
68700;SDS011;55682;51.114;5.882;2023-02-28T00:05:21;7.99;;;7.99;;
68700;SDS011;55682;51.114;5.882;2023-02-28T00:07:49;8.40;;;8.40;;
68700;SDS011;55682;51.114;5.882;2023-02-28T00:10:19;8.39;;;8.39;;
68700;SDS011;55682;51.114;5.882;2023-02-28T00:12:48;8.63;;;8.63;;
68700;SDS011;55682;51.114;5.882;2023-02-28T00:15:15;8.33;;;8.33;;
68700;SDS011;55682;51.114;5.882;2023-02-28T00:17:42;8.39;;;8.39;;
68700;SDS011;55682;51.114;5.882;2023-02-28T00:20:09;8.76;;;8.76;;
68700;SDS011;55682;51.114;5.882;2023-02-28T00:22:41;8.84;;;8.84;;
68700;SDS011;55682;51.114;5.882;2023-02-28T00:25:08;8.79;;;8.79;;
68700;SDS011;55682;51.114;5.882;2023-02-28T00:27:36;9.53;;;9.53;;
68700;SDS011;55682;51.114;5.882;2023-02-28T00:30:04;9.27;;;9.27;;
68700;SDS011;55682;51.114;5.882;2023-02-28T00:32:32;9.92;;;9.92;;
68700;SDS011;55682;51.114;5.882;2023-02-28T00:35:00;9.72;;;9.72;;
68700;SDS011;55682;51.114;5.882;2023-02-28T00:37:27;9.43;;;9.43;;
68700;SDS011;55682;51.114;5.882;2023-02-28T00:39:53;9.64;;;9.64;;
68700;SDS011;55682;51.114;5.882;2023-02-28T00:42:18;9.57;;;9.57;;
68700;SDS011;55682;51.114;5.882;2023-02-28T00:44:46;9.65;;;9.65;;
68700;SDS011;55682;51.114;5.882;2023-02-28T00:47:12;9.67;;;9.67;;
68700;SDS011;55682;51.114;5.882;2023-02-28T00:49:37;9.73;;;9.73;;
68700;SDS011;55682;51.114;5.882;2023-02-28T00:52:03;9.58;;;9.58;;
68700;SDS011;55682;51.114;5.882;2023-02-28T00:54:29;9.60;;;9.60;;
68700;SDS011;55682;51.114;5.882;2023-02-28T00:56:55;9.70;;;9.70;;
68700;SDS011;55682;51.114;5.882;2023-02-28T00:59:20;9.80;;;9.80;;
68700;SDS011;55682;51.114;5.882;2023-02-28T01:01:47;9.41;;;9.41;;
68700;SDS011;55682;51.114;5.882;2023-02-28T01:04:13;9.33;;;9.33;;
68700;SDS011;55682;51.114;5.882;2023-02-28T01:06:40;9.22;;;9.22;;
68700;SDS011;55682;51.114;5.882;2023-02-28T01:09:09;9.68;;;9.68;;
68700;SDS011;55682;51.114;5.882;2023-02-28T01:11:36;9.43;;;9.43;;
68700;SDS011;55682;51.114;5.882;2023-02-28T01:14:02;9.64;;;9.64;;
68700;SDS011;55682;51.114;5.882;2023-02-28T01:16:29;9.34;;;9.34;;
68700;SDS011;55682;51.114;5.882;2023-02-28T01:18:55;9.64;;;9.64;;
68700;SDS011;55682;51.114;5.882;2023-02-28T01:21:22;9.33;;;9.33;;
68700;SDS011;55682;51.114;5.882;2023-02-28T01:23:48;9.48;;;9.48;;
68700;SDS011;55682;51.114;5.882;2023-02-28T01:26:23;9.73;;;9.73;;
68700;SDS011;55682;51.114;5.882;2023-02-28T01:28:50;9.48;;;9.48;;
68700;SDS011;55682;51.114;5.882;2023-02-28T01:31:18;9.66;;;9.66;;
68700;SDS011;55682;51.114;5.882;2023-02-28T01:33:45;9.53;;;9.53;;
68700;SDS011;55682;51.114;5.882;2023-02-28T01:36:12;9.60;;;9.60;;
68700;SDS011;55682;51.114;5.882;2023-02-28T01:38:41;9.72;;;9.72;;
68700;SDS011;55682;51.114;5.882;2023-02-28T01:41:07;9.53;;;9.53;;
68700;SDS011;55682;51.114;5.882;2023-02-28T01:46:08;9.41;;;9.41;;
68700;SDS011;55682;51.114;5.882;2023-02-28T01:48:38;9.82;;;9.82;;
68700;SDS011;55682;51.114;5.882;2023-02-28T01:51:17;10.31;;;10.31;;
68700;SDS011;55682;51.114;5.882;2023-02-28T01:53:54;9.95;;;9.95;;
68700;SDS011;55682;51.114;5.882;2023-02-28T01:56:29;9.81;;;9.81;;
68700;SDS011;55682;51.114;5.882;2023-02-28T01:59:00;9.82;;;9.82;;
68700;SDS011;55682;51.114;5.882;2023-02-28T02:01:28;10.13;;;10.13;;
68700;SDS011;55682;51.114;5.882;2023-02-28T02:03:59;10.01;;;10.01;;
68700;SDS011;55682;51.114;5.882;2023-02-28T02:06:29;9.71;;;9.71;;
68700;SDS011;55682;51.114;5.882;2023-02-28T02:09:01;9.71;;;9.71;;
68700;SDS011;55682;51.114;5.882;2023-02-28T02:11:27;9.73;;;9.73;;
68700;SDS011;55682;51.114;5.882;2023-02-28T02:14:00;9.81;;;9.81;;
68700;SDS011;55682;51.114;5.882;2023-02-28T02:16:59;9.79;;;9.79;;
68700;SDS011;55682;51.114;5.882;2023-02-28T02:22:58;9.74;;;9.74;;
68700;SDS011;55682;51.114;5.882;2023-02-28T02:39:13;9.85;;;9.85;;
68700;SDS011;55682;51.114;5.882;2023-02-28T02:41:47;9.94;;;9.94;;
68700;SDS011;55682;51.114;5.882;2023-02-28T02:44:21;10.19;;;10.19;;
68700;SDS011;55682;51.114;5.882;2023-02-28T02:46:54;10.03;;;10.03;;
68700;SDS011;55682;51.114;5.882;2023-02-28T02:49:31;9.76;;;9.76;;
68700;SDS011;55682;51.114;5.882;2023-02-28T02:52:02;10.44;;;10.44;;
68700;SDS011;55682;51.114;5.882;2023-02-28T02:54:35;10.09;;;10.09;;
68700;SDS011;55682;51.114;5.882;2023-02-28T02:57:27;10.03;;;10.03;;
68700;SDS011;55682;51.114;5.882;2023-02-28T02:59:55;10.10;;;10.10;;
68700;SDS011;55682;51.114;5.882;2023-02-28T03:02:22;10.22;;;10.22;;
68700;SDS011;55682;51.114;5.882;2023-02-28T03:04:53;9.97;;;9.97;;
68700;SDS011;55682;51.114;5.882;2023-02-28T03:07:27;10.30;;;10.30;;
68700;SDS011;55682;51.114;5.882;2023-02-28T03:09:53;10.16;;;10.16;;
68700;SDS011;55682;51.114;5.882;2023-02-28T03:12:20;10.31;;;10.31;;
68700;SDS011;55682;51.114;5.882;2023-02-28T03:15:24;10.45;;;10.45;;
68700;SDS011;55682;51.114;5.882;2023-02-28T03:28:15;9.74;;;9.74;;
68700;SDS011;55682;51.114;5.882;2023-02-28T03:36:39;8.92;;;8.92;;
68700;SDS011;55682;51.114;5.882;2023-02-28T03:39:20;9.16;;;9.16;;
68700;SDS011;55682;51.114;5.882;2023-02-28T03:42:05;9.30;;;9.30;;
68700;SDS011;55682;51.114;5.882;2023-02-28T03:47:16;9.16;;;9.16;;
68700;SDS011;55682;51.114;5.882;2023-02-28T03:49:54;9.46;;;9.46;;
68700;SDS011;55682;51.114;5.882;2023-02-28T03:52:33;9.35;;;9.35;;
68700;SDS011;55682;51.114;5.882;2023-02-28T03:55:10;9.13;;;9.13;;
68700;SDS011;55682;51.114;5.882;2023-02-28T03:57:41;8.99;;;8.99;;
68700;SDS011;55682;51.114;5.882;2023-02-28T04:00:37;9.11;;;9.11;;
68700;SDS011;55682;51.114;5.882;2023-02-28T04:03:10;9.53;;;9.53;;
68700;SDS011;55682;51.114;5.882;2023-02-28T04:05:45;9.39;;;9.39;;
68700;SDS011;55682;51.114;5.882;2023-02-28T04:08:18;9.62;;;9.62;;
68700;SDS011;55682;51.114;5.882;2023-02-28T04:10:45;9.89;;;9.89;;
68700;SDS011;55682;51.114;5.882;2023-02-28T04:13:31;9.67;;;9.67;;
68700;SDS011;55682;51.114;5.882;2023-02-28T04:15:56;10.17;;;10.17;;
68700;SDS011;55682;51.114;5.882;2023-02-28T04:18:22;9.68;;;9.68;;
68700;SDS011;55682;51.114;5.882;2023-02-28T04:20:48;9.54;;;9.54;;
68700;SDS011;55682;51.114;5.882;2023-02-28T04:23:13;9.24;;;9.24;;
68700;SDS011;55682;51.114;5.882;2023-02-28T04:25:39;10.02;;;10.02;;
68700;SDS011;55682;51.114;5.882;2023-02-28T04:28:05;9.79;;;9.79;;
68700;SDS011;55682;51.114;5.882;2023-02-28T04:30:32;9.89;;;9.89;;
68700;SDS011;55682;51.114;5.882;2023-02-28T04:32:58;9.36;;;9.36;;
68700;SDS011;55682;51.114;5.882;2023-02-28T04:35:23;9.31;;;9.31;;
68700;SDS011;55682;51.114;5.882;2023-02-28T04:37:49;9.58;;;9.58;;
68700;SDS011;55682;51.114;5.882;2023-02-28T04:40:15;9.27;;;9.27;;
68700;SDS011;55682;51.114;5.882;2023-02-28T04:42:40;9.76;;;9.76;;
68700;SDS011;55682;51.114;5.882;2023-02-28T04:45:06;9.58;;;9.58;;
68700;SDS011;55682;51.114;5.882;2023-02-28T04:47:35;9.61;;;9.61;;
68700;SDS011;55682;51.114;5.882;2023-02-28T04:50:01;9.62;;;9.62;;
68700;SDS011;55682;51.114;5.882;2023-02-28T04:52:28;9.47;;;9.47;;
68700;SDS011;55682;51.114;5.882;2023-02-28T04:54:53;9.41;;;9.41;;
68700;SDS011;55682;51.114;5.882;2023-02-28T04:57:19;9.62;;;9.62;;
68700;SDS011;55682;51.114;5.882;2023-02-28T04:59:45;9.71;;;9.71;;
68700;SDS011;55682;51.114;5.882;2023-02-28T05:02:12;10.10;;;10.10;;
68700;SDS011;55682;51.114;5.882;2023-02-28T05:04:38;9.83;;;9.83;;
68700;SDS011;55682;51.114;5.882;2023-02-28T05:07:04;10.09;;;10.09;;
68700;SDS011;55682;51.114;5.882;2023-02-28T05:09:29;9.80;;;9.80;;
68700;SDS011;55682;51.114;5.882;2023-02-28T05:11:55;9.25;;;9.25;;
68700;SDS011;55682;51.114;5.882;2023-02-28T05:14:21;9.84;;;9.84;;
68700;SDS011;55682;51.114;5.882;2023-02-28T05:16:47;9.53;;;9.53;;
68700;SDS011;55682;51.114;5.882;2023-02-28T05:19:12;9.06;;;9.06;;
68700;SDS011;55682;51.114;5.882;2023-02-28T05:21:38;9.04;;;9.04;;
68700;SDS011;55682;51.114;5.882;2023-02-28T05:24:08;9.50;;;9.50;;
68700;SDS011;55682;51.114;5.882;2023-02-28T05:26:36;9.43;;;9.43;;
68700;SDS011;55682;51.114;5.882;2023-02-28T05:29:04;8.99;;;8.99;;
68700;SDS011;55682;51.114;5.882;2023-02-28T05:31:30;9.17;;;9.17;;
68700;SDS011;55682;51.114;5.882;2023-02-28T05:33:56;9.41;;;9.41;;
68700;SDS011;55682;51.114;5.882;2023-02-28T05:36:22;9.32;;;9.32;;
68700;SDS011;55682;51.114;5.882;2023-02-28T05:38:48;8.90;;;8.90;;
68700;SDS011;55682;51.114;5.882;2023-02-28T05:41:15;8.46;;;8.46;;
68700;SDS011;55682;51.114;5.882;2023-02-28T05:43:42;9.14;;;9.14;;
68700;SDS011;55682;51.114;5.882;2023-02-28T05:46:09;8.80;;;8.80;;
68700;SDS011;55682;51.114;5.882;2023-02-28T05:48:37;8.26;;;8.26;;
68700;SDS011;55682;51.114;5.882;2023-02-28T05:51:04;7.50;;;7.50;;
68700;SDS011;55682;51.114;5.882;2023-02-28T05:53:31;7.69;;;7.69;;
68700;SDS011;55682;51.114;5.882;2023-02-28T05:55:57;7.37;;;7.37;;
68700;SDS011;55682;51.114;5.882;2023-02-28T05:58:23;7.18;;;7.18;;
68700;SDS011;55682;51.114;5.882;2023-02-28T06:00:59;7.34;;;7.34;;
68700;SDS011;55682;51.114;5.882;2023-02-28T06:03:26;7.23;;;7.23;;
68700;SDS011;55682;51.114;5.882;2023-02-28T06:05:52;7.20;;;7.20;;
68700;SDS011;55682;51.114;5.882;2023-02-28T06:08:19;7.11;;;7.11;;
68700;SDS011;55682;51.114;5.882;2023-02-28T06:10:44;7.26;;;7.26;;
68700;SDS011;55682;51.114;5.882;2023-02-28T06:13:10;7.73;;;7.72;;
68700;SDS011;55682;51.114;5.882;2023-02-28T06:15:37;7.69;;;7.69;;
68700;SDS011;55682;51.114;5.882;2023-02-28T06:18:03;8.06;;;8.06;;
68700;SDS011;55682;51.114;5.882;2023-02-28T06:20:29;8.21;;;8.21;;
68700;SDS011;55682;51.114;5.882;2023-02-28T06:22:58;8.06;;;8.06;;
68700;SDS011;55682;51.114;5.882;2023-02-28T06:25:24;7.74;;;7.74;;
68700;SDS011;55682;51.114;5.882;2023-02-28T06:27:52;7.72;;;7.72;;
68700;SDS011;55682;51.114;5.882;2023-02-28T06:30:18;8.18;;;8.18;;
68700;SDS011;55682;51.114;5.882;2023-02-28T06:32:43;8.40;;;8.40;;
68700;SDS011;55682;51.114;5.882;2023-02-28T06:35:09;7.88;;;7.88;;
68700;SDS011;55682;51.114;5.882;2023-02-28T06:37:35;8.12;;;8.12;;
68700;SDS011;55682;51.114;5.882;2023-02-28T06:40:01;7.98;;;7.97;;
68700;SDS011;55682;51.114;5.882;2023-02-28T06:42:28;8.27;;;8.27;;
68700;SDS011;55682;51.114;5.882;2023-02-28T06:44:56;8.51;;;8.51;;
68700;SDS011;55682;51.114;5.882;2023-02-28T06:47:21;7.89;;;7.89;;
68700;SDS011;55682;51.114;5.882;2023-02-28T06:49:47;8.19;;;8.19;;
68700;SDS011;55682;51.114;5.882;2023-02-28T06:52:13;7.76;;;7.76;;
68700;SDS011;55682;51.114;5.882;2023-02-28T06:54:40;7.79;;;7.79;;
68700;SDS011;55682;51.114;5.882;2023-02-28T06:57:06;8.27;;;8.27;;
68700;SDS011;55682;51.114;5.882;2023-02-28T06:59:32;8.34;;;8.34;;
68700;SDS011;55682;51.114;5.882;2023-02-28T07:01:58;7.96;;;7.96;;
68700;SDS011;55682;51.114;5.882;2023-02-28T07:04:24;8.08;;;8.08;;
68700;SDS011;55682;51.114;5.882;2023-02-28T07:06:50;8.09;;;8.09;;
68700;SDS011;55682;51.114;5.882;2023-02-28T07:09:15;7.95;;;7.95;;
68700;SDS011;55682;51.114;5.882;2023-02-28T07:11:41;7.64;;;7.64;;
68700;SDS011;55682;51.114;5.882;2023-02-28T07:14:08;7.55;;;7.55;;
68700;SDS011;55682;51.114;5.882;2023-02-28T07:16:35;7.98;;;7.98;;
68700;SDS011;55682;51.114;5.882;2023-02-28T07:19:00;7.81;;;7.81;;
68700;SDS011;55682;51.114;5.882;2023-02-28T07:21:26;7.53;;;7.53;;
68700;SDS011;55682;51.114;5.882;2023-02-28T07:23:52;7.45;;;7.45;;
68700;SDS011;55682;51.114;5.882;2023-02-28T07:26:18;7.17;;;7.17;;
68700;SDS011;55682;51.114;5.882;2023-02-28T07:28:46;7.19;;;7.19;;
68700;SDS011;55682;51.114;5.882;2023-02-28T07:31:13;7.35;;;7.35;;
68700;SDS011;55682;51.114;5.882;2023-02-28T07:33:39;7.19;;;7.19;;
68700;SDS011;55682;51.114;5.882;2023-02-28T07:36:07;7.51;;;7.51;;
68700;SDS011;55682;51.114;5.882;2023-02-28T07:38:39;7.07;;;7.07;;
68700;SDS011;55682;51.114;5.882;2023-02-28T07:41:04;6.99;;;6.99;;
68700;SDS011;55682;51.114;5.882;2023-02-28T07:43:30;7.02;;;7.02;;
68700;SDS011;55682;51.114;5.882;2023-02-28T07:46:04;7.50;;;7.50;;
68700;SDS011;55682;51.114;5.882;2023-02-28T07:48:33;6.89;;;6.89;;
68700;SDS011;55682;51.114;5.882;2023-02-28T07:50:59;6.45;;;6.45;;
68700;SDS011;55682;51.114;5.882;2023-02-28T07:53:26;7.08;;;7.08;;
68700;SDS011;55682;51.114;5.882;2023-02-28T07:55:58;6.68;;;6.68;;
68700;SDS011;55682;51.114;5.882;2023-02-28T07:58:26;6.97;;;6.97;;
68700;SDS011;55682;51.114;5.882;2023-02-28T08:00:53;6.78;;;6.78;;
68700;SDS011;55682;51.114;5.882;2023-02-28T08:03:20;7.09;;;7.09;;
68700;SDS011;55682;51.114;5.882;2023-02-28T08:05:47;7.03;;;7.03;;
68700;SDS011;55682;51.114;5.882;2023-02-28T08:08:14;6.95;;;6.95;;
68700;SDS011;55682;51.114;5.882;2023-02-28T08:10:41;7.33;;;7.33;;
68700;SDS011;55682;51.114;5.882;2023-02-28T08:13:07;6.63;;;6.63;;
68700;SDS011;55682;51.114;5.882;2023-02-28T08:15:33;7.01;;;7.01;;
68700;SDS011;55682;51.114;5.882;2023-02-28T08:17:58;6.46;;;6.46;;
68700;SDS011;55682;51.114;5.882;2023-02-28T08:20:25;6.14;;;6.14;;
68700;SDS011;55682;51.114;5.882;2023-02-28T08:22:52;6.11;;;6.11;;
68700;SDS011;55682;51.114;5.882;2023-02-28T08:25:17;6.16;;;6.16;;
68700;SDS011;55682;51.114;5.882;2023-02-28T08:27:43;6.69;;;6.69;;
68700;SDS011;55682;51.114;5.882;2023-02-28T08:30:10;6.61;;;6.61;;
68700;SDS011;55682;51.114;5.882;2023-02-28T08:32:37;5.52;;;5.52;;
68700;SDS011;55682;51.114;5.882;2023-02-28T08:35:03;5.85;;;5.85;;
68700;SDS011;55682;51.114;5.882;2023-02-28T08:37:30;5.88;;;5.88;;
68700;SDS011;55682;51.114;5.882;2023-02-28T08:39:55;6.00;;;6.00;;
68700;SDS011;55682;51.114;5.882;2023-02-28T08:42:21;6.46;;;6.46;;
68700;SDS011;55682;51.114;5.882;2023-02-28T08:44:46;5.67;;;5.67;;
68700;SDS011;55682;51.114;5.882;2023-02-28T08:47:12;5.40;;;5.40;;
68700;SDS011;55682;51.114;5.882;2023-02-28T08:49:38;5.06;;;5.06;;
68700;SDS011;55682;51.114;5.882;2023-02-28T08:52:03;5.19;;;5.19;;
68700;SDS011;55682;51.114;5.882;2023-02-28T08:54:29;5.12;;;5.12;;
68700;SDS011;55682;51.114;5.882;2023-02-28T08:56:56;4.86;;;4.86;;
68700;SDS011;55682;51.114;5.882;2023-02-28T08:59:22;5.50;;;5.50;;
68700;SDS011;55682;51.114;5.882;2023-02-28T09:01:48;4.67;;;4.67;;
68700;SDS011;55682;51.114;5.882;2023-02-28T09:04:13;4.19;;;4.19;;
68700;SDS011;55682;51.114;5.882;2023-02-28T09:06:39;3.93;;;3.93;;
68700;SDS011;55682;51.114;5.882;2023-02-28T09:09:05;3.53;;;3.53;;
68700;SDS011;55682;51.114;5.882;2023-02-28T09:11:33;3.47;;;3.47;;
68700;SDS011;55682;51.114;5.882;2023-02-28T09:14:00;3.32;;;3.32;;
68700;SDS011;55682;51.114;5.882;2023-02-28T09:16:28;3.30;;;3.30;;
68700;SDS011;55682;51.114;5.882;2023-02-28T09:18:56;2.84;;;2.84;;
68700;SDS011;55682;51.114;5.882;2023-02-28T09:21:22;3.47;;;3.47;;
68700;SDS011;55682;51.114;5.882;2023-02-28T09:23:48;3.76;;;3.76;;
68700;SDS011;55682;51.114;5.882;2023-02-28T09:26:22;3.55;;;3.55;;
68700;SDS011;55682;51.114;5.882;2023-02-28T09:28:52;3.10;;;3.10;;
68700;SDS011;55682;51.114;5.882;2023-02-28T09:31:23;3.01;;;3.01;;
68700;SDS011;55682;51.114;5.882;2023-02-28T09:33:52;3.32;;;3.32;;
68700;SDS011;55682;51.114;5.882;2023-02-28T09:36:20;2.99;;;2.99;;
68700;SDS011;55682;51.114;5.882;2023-02-28T09:38:48;2.99;;;2.99;;
68700;SDS011;55682;51.114;5.882;2023-02-28T09:41:15;3.19;;;3.19;;
68700;SDS011;55682;51.114;5.882;2023-02-28T09:43:49;3.05;;;3.05;;
68700;SDS011;55682;51.114;5.882;2023-02-28T09:46:32;2.72;;;2.72;;
68700;SDS011;55682;51.114;5.882;2023-02-28T09:49:05;2.68;;;2.68;;
68700;SDS011;55682;51.114;5.882;2023-02-28T09:52:00;2.97;;;2.97;;
68700;SDS011;55682;51.114;5.882;2023-02-28T09:54:48;2.63;;;2.63;;
68700;SDS011;55682;51.114;5.882;2023-02-28T09:57:33;3.10;;;3.10;;
68700;SDS011;55682;51.114;5.882;2023-02-28T10:00:07;2.65;;;2.65;;
68700;SDS011;55682;51.114;5.882;2023-02-28T10:05:52;3.32;;;3.32;;
68700;SDS011;55682;51.114;5.882;2023-02-28T10:08:43;2.74;;;2.74;;
68700;SDS011;55682;51.114;5.882;2023-02-28T10:11:39;2.97;;;2.97;;
68700;SDS011;55682;51.114;5.882;2023-02-28T10:16:42;3.02;;;3.02;;
68700;SDS011;55682;51.114;5.882;2023-02-28T10:25:23;2.79;;;2.79;;
68700;SDS011;55682;51.114;5.882;2023-02-28T10:27:58;2.90;;;2.90;;
68700;SDS011;55682;51.114;5.882;2023-02-28T10:30:43;3.02;;;3.02;;
68700;SDS011;55682;51.114;5.882;2023-02-28T10:33:34;2.70;;;2.70;;
68700;SDS011;55682;51.114;5.882;2023-02-28T10:36:00;2.74;;;2.74;;
68700;SDS011;55682;51.114;5.882;2023-02-28T10:38:37;2.72;;;2.72;;
68700;SDS011;55682;51.114;5.882;2023-02-28T10:43:35;2.77;;;2.77;;
68700;SDS011;55682;51.114;5.882;2023-02-28T10:48:31;2.52;;;2.52;;
68700;SDS011;55682;51.114;5.882;2023-02-28T10:51:01;2.26;;;2.26;;
68700;SDS011;55682;51.114;5.882;2023-02-28T10:53:34;2.70;;;2.70;;
68700;SDS011;55682;51.114;5.882;2023-02-28T11:04:16;2.77;;;2.77;;
68700;SDS011;55682;51.114;5.882;2023-02-28T11:06:43;3.28;;;3.28;;
68700;SDS011;55682;51.114;5.882;2023-02-28T11:09:44;3.15;;;3.15;;
68700;SDS011;55682;51.114;5.882;2023-02-28T11:12:08;3.20;;;3.20;;
68700;SDS011;55682;51.114;5.882;2023-02-28T11:15:04;3.00;;;3.00;;
68700;SDS011;55682;51.114;5.882;2023-02-28T11:17:43;3.39;;;3.39;;
68700;SDS011;55682;51.114;5.882;2023-02-28T11:20:14;3.07;;;3.07;;
68700;SDS011;55682;51.114;5.882;2023-02-28T11:22:48;2.84;;;2.84;;
68700;SDS011;55682;51.114;5.882;2023-02-28T11:25:21;3.01;;;3.01;;
68700;SDS011;55682;51.114;5.882;2023-02-28T11:28:06;3.25;;;3.25;;
68700;SDS011;55682;51.114;5.882;2023-02-28T11:38:50;3.08;;;3.08;;
68700;SDS011;55682;51.114;5.882;2023-02-28T11:41:28;3.05;;;3.05;;
68700;SDS011;55682;51.114;5.882;2023-02-28T11:44:13;3.61;;;3.61;;
68700;SDS011;55682;51.114;5.882;2023-02-28T11:47:38;2.70;;;2.70;;
68700;SDS011;55682;51.114;5.882;2023-02-28T11:57:56;3.13;;;3.13;;
68700;SDS011;55682;51.114;5.882;2023-02-28T12:08:42;3.18;;;3.18;;
68700;SDS011;55682;51.114;5.882;2023-02-28T12:28:26;3.95;;;3.95;;
68700;SDS011;55682;51.114;5.882;2023-02-28T12:31:00;2.87;;;2.87;;
68700;SDS011;55682;51.114;5.882;2023-02-28T12:33:37;3.11;;;3.11;;
68700;SDS011;55682;51.114;5.882;2023-02-28T12:36:14;3.26;;;3.26;;
68700;SDS011;55682;51.114;5.882;2023-02-28T12:38:45;3.50;;;3.50;;
68700;SDS011;55682;51.114;5.882;2023-02-28T12:41:18;3.39;;;3.39;;
68700;SDS011;55682;51.114;5.882;2023-02-28T12:44:08;3.58;;;3.58;;
68700;SDS011;55682;51.114;5.882;2023-02-28T12:46:45;3.75;;;3.75;;
68700;SDS011;55682;51.114;5.882;2023-02-28T12:52:17;3.04;;;3.04;;
68700;SDS011;55682;51.114;5.882;2023-02-28T12:54:56;3.57;;;3.57;;
68700;SDS011;55682;51.114;5.882;2023-02-28T12:57:42;3.30;;;3.30;;
68700;SDS011;55682;51.114;5.882;2023-02-28T13:00:17;3.04;;;3.04;;
68700;SDS011;55682;51.114;5.882;2023-02-28T13:08:17;3.19;;;3.19;;
68700;SDS011;55682;51.114;5.882;2023-02-28T13:11:22;3.33;;;3.33;;
68700;SDS011;55682;51.114;5.882;2023-02-28T13:13:55;3.64;;;3.64;;
68700;SDS011;55682;51.114;5.882;2023-02-28T13:16:27;3.52;;;3.52;;
68700;SDS011;55682;51.114;5.882;2023-02-28T13:19:10;3.28;;;3.28;;
68700;SDS011;55682;51.114;5.882;2023-02-28T13:21:41;3.44;;;3.44;;
68700;SDS011;55682;51.114;5.882;2023-02-28T13:24:09;2.54;;;2.54;;
68700;SDS011;55682;51.114;5.882;2023-02-28T13:35:34;3.17;;;3.17;;
68700;SDS011;55682;51.114;5.882;2023-02-28T13:39:55;2.91;;;2.91;;
68700;SDS011;55682;51.114;5.882;2023-02-28T13:48:15;3.44;;;3.44;;
68700;SDS011;55682;51.114;5.882;2023-02-28T13:50:28;3.14;;;3.14;;
68700;SDS011;55682;51.114;5.882;2023-02-28T13:55:31;3.63;;;3.63;;
68700;SDS011;55682;51.114;5.882;2023-02-28T14:06:33;3.32;;;3.32;;
68700;SDS011;55682;51.114;5.882;2023-02-28T14:14:06;2.70;;;2.70;;
68700;SDS011;55682;51.114;5.882;2023-02-28T14:16:47;3.17;;;3.17;;
68700;SDS011;55682;51.114;5.882;2023-02-28T14:19:24;3.31;;;3.31;;
68700;SDS011;55682;51.114;5.882;2023-02-28T14:38:25;3.31;;;3.31;;
68700;SDS011;55682;51.114;5.882;2023-02-28T14:40:56;3.14;;;3.14;;
68700;SDS011;55682;51.114;5.882;2023-02-28T14:43:26;3.40;;;3.40;;
68700;SDS011;55682;51.114;5.882;2023-02-28T14:45:54;3.89;;;3.89;;
68700;SDS011;55682;51.114;5.882;2023-02-28T14:48:26;3.94;;;3.94;;
68700;SDS011;55682;51.114;5.882;2023-02-28T14:50:57;3.18;;;3.18;;
68700;SDS011;55682;51.114;5.882;2023-02-28T14:53:29;3.65;;;3.65;;
68700;SDS011;55682;51.114;5.882;2023-02-28T14:56:00;3.89;;;3.89;;
68700;SDS011;55682;51.114;5.882;2023-02-28T14:58:27;3.25;;;3.25;;
68700;SDS011;55682;51.114;5.882;2023-02-28T15:00:55;4.15;;;4.15;;
68700;SDS011;55682;51.114;5.882;2023-02-28T15:03:30;3.25;;;3.25;;
68700;SDS011;55682;51.114;5.882;2023-02-28T15:06:03;3.38;;;3.38;;
68700;SDS011;55682;51.114;5.882;2023-02-28T15:08:40;3.94;;;3.94;;
68700;SDS011;55682;51.114;5.882;2023-02-28T15:11:13;3.73;;;3.73;;
68700;SDS011;55682;51.114;5.882;2023-02-28T15:13:51;4.07;;;4.07;;
68700;SDS011;55682;51.114;5.882;2023-02-28T15:16:41;3.89;;;3.89;;
68700;SDS011;55682;51.114;5.882;2023-02-28T15:19:12;3.64;;;3.64;;
68700;SDS011;55682;51.114;5.882;2023-02-28T15:21:45;3.32;;;3.32;;
68700;SDS011;55682;51.114;5.882;2023-02-28T15:24:17;3.47;;;3.47;;
68700;SDS011;55682;51.114;5.882;2023-02-28T15:26:58;3.75;;;3.75;;
68700;SDS011;55682;51.114;5.882;2023-02-28T15:29:29;3.74;;;3.74;;
68700;SDS011;55682;51.114;5.882;2023-02-28T15:32:07;3.85;;;3.85;;
68700;SDS011;55682;51.114;5.882;2023-02-28T15:34:51;3.69;;;3.69;;
68700;SDS011;55682;51.114;5.882;2023-02-28T15:40:35;4.11;;;4.11;;
68700;SDS011;55682;51.114;5.882;2023-02-28T15:43:47;4.33;;;4.33;;
68700;SDS011;55682;51.114;5.882;2023-02-28T15:45:56;4.22;;;4.22;;
68700;SDS011;55682;51.114;5.882;2023-02-28T15:54:06;3.19;;;3.19;;
68700;SDS011;55682;51.114;5.882;2023-02-28T15:56:47;3.63;;;3.63;;
68700;SDS011;55682;51.114;5.882;2023-02-28T15:59:19;3.76;;;3.76;;
68700;SDS011;55682;51.114;5.882;2023-02-28T16:04:54;3.96;;;3.96;;
68700;SDS011;55682;51.114;5.882;2023-02-28T16:07:42;4.08;;;4.08;;
68700;SDS011;55682;51.114;5.882;2023-02-28T16:10:09;4.38;;;4.38;;
68700;SDS011;55682;51.114;5.882;2023-02-28T16:12:39;4.06;;;4.06;;
68700;SDS011;55682;51.114;5.882;2023-02-28T16:15:20;4.12;;;4.12;;
68700;SDS011;55682;51.114;5.882;2023-02-28T16:17:52;3.83;;;3.83;;
68700;SDS011;55682;51.114;5.882;2023-02-28T16:20:23;4.28;;;4.28;;
68700;SDS011;55682;51.114;5.882;2023-02-28T16:22:50;4.78;;;4.78;;
68700;SDS011;55682;51.114;5.882;2023-02-28T16:25:18;5.00;;;5.00;;
68700;SDS011;55682;51.114;5.882;2023-02-28T16:27:49;4.35;;;4.35;;
68700;SDS011;55682;51.114;5.882;2023-02-28T16:30:26;4.09;;;4.09;;
68700;SDS011;55682;51.114;5.882;2023-02-28T16:32:56;4.13;;;4.13;;
68700;SDS011;55682;51.114;5.882;2023-02-28T16:35:22;4.33;;;4.33;;
68700;SDS011;55682;51.114;5.882;2023-02-28T16:37:53;4.08;;;4.08;;
68700;SDS011;55682;51.114;5.882;2023-02-28T16:40:21;4.37;;;4.37;;
68700;SDS011;55682;51.114;5.882;2023-02-28T16:42:51;4.79;;;4.79;;
68700;SDS011;55682;51.114;5.882;2023-02-28T16:45:25;5.23;;;5.23;;
68700;SDS011;55682;51.114;5.882;2023-02-28T16:47:53;5.01;;;5.01;;
68700;SDS011;55682;51.114;5.882;2023-02-28T16:52:47;5.50;;;5.50;;
68700;SDS011;55682;51.114;5.882;2023-02-28T16:55:14;5.24;;;5.24;;
68700;SDS011;55682;51.114;5.882;2023-02-28T16:57:41;5.55;;;5.55;;
68700;SDS011;55682;51.114;5.882;2023-02-28T17:00:11;5.71;;;5.71;;
68700;SDS011;55682;51.114;5.882;2023-02-28T17:02:38;5.69;;;5.69;;
68700;SDS011;55682;51.114;5.882;2023-02-28T17:05:04;5.83;;;5.83;;
68700;SDS011;55682;51.114;5.882;2023-02-28T17:07:31;5.58;;;5.58;;
68700;SDS011;55682;51.114;5.882;2023-02-28T17:09:57;5.95;;;5.95;;
68700;SDS011;55682;51.114;5.882;2023-02-28T17:12:24;6.34;;;6.34;;
68700;SDS011;55682;51.114;5.882;2023-02-28T17:14:50;6.16;;;6.16;;
68700;SDS011;55682;51.114;5.882;2023-02-28T17:17:17;6.33;;;6.33;;
68700;SDS011;55682;51.114;5.882;2023-02-28T17:19:46;6.17;;;6.17;;
68700;SDS011;55682;51.114;5.882;2023-02-28T17:22:13;6.41;;;6.41;;
68700;SDS011;55682;51.114;5.882;2023-02-28T17:24:39;6.73;;;6.73;;
68700;SDS011;55682;51.114;5.882;2023-02-28T17:27:04;6.72;;;6.72;;
68700;SDS011;55682;51.114;5.882;2023-02-28T17:29:30;6.72;;;6.72;;
68700;SDS011;55682;51.114;5.882;2023-02-28T17:31:56;6.88;;;6.88;;
68700;SDS011;55682;51.114;5.882;2023-02-28T17:34:22;6.44;;;6.44;;
68700;SDS011;55682;51.114;5.882;2023-02-28T17:36:48;6.55;;;6.55;;
68700;SDS011;55682;51.114;5.882;2023-02-28T17:39:15;6.85;;;6.85;;
68700;SDS011;55682;51.114;5.882;2023-02-28T17:41:50;6.98;;;6.98;;
68700;SDS011;55682;51.114;5.882;2023-02-28T17:44:17;7.01;;;7.01;;
68700;SDS011;55682;51.114;5.882;2023-02-28T17:46:43;7.32;;;7.32;;
68700;SDS011;55682;51.114;5.882;2023-02-28T17:49:10;6.99;;;6.99;;
68700;SDS011;55682;51.114;5.882;2023-02-28T17:51:36;7.01;;;7.01;;
68700;SDS011;55682;51.114;5.882;2023-02-28T17:54:02;6.97;;;6.97;;
68700;SDS011;55682;51.114;5.882;2023-02-28T17:56:27;7.45;;;7.45;;
68700;SDS011;55682;51.114;5.882;2023-02-28T17:58:53;7.32;;;7.32;;
68700;SDS011;55682;51.114;5.882;2023-02-28T18:01:21;7.08;;;7.08;;